sensor_id;sensor_type;location;lat;lon;timestamp;P1;durP1;ratioP1;P2;durP2;ratioP2
18732;SDS011;9495;51.210;2.934;2023-03-22T00:00:09;15.50;;;4.73;;
18732;SDS011;9495;51.210;2.934;2023-03-22T00:02:43;17.27;;;4.10;;
18732;SDS011;9495;51.210;2.934;2023-03-22T00:05:12;17.80;;;4.93;;
18732;SDS011;9495;51.210;2.934;2023-03-22T00:07:41;16.20;;;4.80;;
18732;SDS011;9495;51.210;2.934;2023-03-22T00:10:09;18.73;;;5.40;;
18732;SDS011;9495;51.210;2.934;2023-03-22T00:12:38;15.33;;;5.00;;
18732;SDS011;9495;51.210;2.934;2023-03-22T00:15:07;14.90;;;4.50;;
18732;SDS011;9495;51.210;2.934;2023-03-22T00:17:37;13.73;;;4.93;;
18732;SDS011;9495;51.210;2.934;2023-03-22T00:20:07;14.10;;;4.93;;
18732;SDS011;9495;51.210;2.934;2023-03-22T00:22:37;15.13;;;4.83;;
18732;SDS011;9495;51.210;2.934;2023-03-22T00:25:06;15.97;;;5.30;;
18732;SDS011;9495;51.210;2.934;2023-03-22T00:27:35;22.13;;;5.70;;
18732;SDS011;9495;51.210;2.934;2023-03-22T00:30:04;14.87;;;5.07;;
18732;SDS011;9495;51.210;2.934;2023-03-22T00:32:35;11.33;;;5.10;;
18732;SDS011;9495;51.210;2.934;2023-03-22T00:35:04;17.93;;;5.97;;
18732;SDS011;9495;51.210;2.934;2023-03-22T00:37:33;16.93;;;5.90;;
18732;SDS011;9495;51.210;2.934;2023-03-22T00:40:04;19.07;;;6.50;;
18732;SDS011;9495;51.210;2.934;2023-03-22T00:42:35;15.67;;;5.60;;
18732;SDS011;9495;51.210;2.934;2023-03-22T00:45:05;14.93;;;5.10;;
18732;SDS011;9495;51.210;2.934;2023-03-22T00:47:37;15.07;;;4.93;;
18732;SDS011;9495;51.210;2.934;2023-03-22T00:50:06;12.47;;;5.50;;
18732;SDS011;9495;51.210;2.934;2023-03-22T00:52:35;8.43;;;4.70;;
18732;SDS011;9495;51.210;2.934;2023-03-22T00:55:03;13.30;;;5.30;;
18732;SDS011;9495;51.210;2.934;2023-03-22T00:57:32;13.33;;;5.70;;
18732;SDS011;9495;51.210;2.934;2023-03-22T01:00:00;11.30;;;5.50;;
18732;SDS011;9495;51.210;2.934;2023-03-22T01:02:42;12.80;;;5.50;;
18732;SDS011;9495;51.210;2.934;2023-03-22T01:05:11;12.83;;;5.27;;
18732;SDS011;9495;51.210;2.934;2023-03-22T01:07:41;13.23;;;5.90;;
18732;SDS011;9495;51.210;2.934;2023-03-22T01:10:10;11.47;;;5.33;;
18732;SDS011;9495;51.210;2.934;2023-03-22T01:12:39;14.87;;;6.33;;
18732;SDS011;9495;51.210;2.934;2023-03-22T01:15:08;13.23;;;5.37;;
18732;SDS011;9495;51.210;2.934;2023-03-22T01:17:37;13.50;;;5.83;;
18732;SDS011;9495;51.210;2.934;2023-03-22T01:20:08;17.97;;;6.07;;
18732;SDS011;9495;51.210;2.934;2023-03-22T01:22:37;15.17;;;6.13;;
18732;SDS011;9495;51.210;2.934;2023-03-22T01:25:06;11.37;;;6.17;;
18732;SDS011;9495;51.210;2.934;2023-03-22T01:27:35;10.67;;;5.80;;
18732;SDS011;9495;51.210;2.934;2023-03-22T01:30:04;12.93;;;5.80;;
18732;SDS011;9495;51.210;2.934;2023-03-22T01:32:34;11.43;;;5.20;;
18732;SDS011;9495;51.210;2.934;2023-03-22T01:35:04;13.80;;;5.13;;
18732;SDS011;9495;51.210;2.934;2023-03-22T01:37:34;16.83;;;5.30;;
18732;SDS011;9495;51.210;2.934;2023-03-22T01:40:02;9.75;;;4.63;;
18732;SDS011;9495;51.210;2.934;2023-03-22T01:42:32;15.03;;;4.77;;
18732;SDS011;9495;51.210;2.934;2023-03-22T01:48:06;13.30;;;4.85;;
18732;SDS011;9495;51.210;2.934;2023-03-22T01:50:38;12.80;;;5.20;;
18732;SDS011;9495;51.210;2.934;2023-03-22T01:53:11;13.60;;;5.20;;
18732;SDS011;9495;51.210;2.934;2023-03-22T01:55:44;13.32;;;5.88;;
18732;SDS011;9495;51.210;2.934;2023-03-22T01:58:13;11.13;;;5.10;;
18732;SDS011;9495;51.210;2.934;2023-03-22T02:00:43;11.00;;;5.38;;
18732;SDS011;9495;51.210;2.934;2023-03-22T02:03:13;10.00;;;5.50;;
18732;SDS011;9495;51.210;2.934;2023-03-22T02:05:46;10.70;;;4.87;;
18732;SDS011;9495;51.210;2.934;2023-03-22T02:08:16;15.23;;;5.63;;
18732;SDS011;9495;51.210;2.934;2023-03-22T02:10:45;13.87;;;5.30;;
18732;SDS011;9495;51.210;2.934;2023-03-22T02:13:17;14.07;;;5.10;;
18732;SDS011;9495;51.210;2.934;2023-03-22T02:16:07;15.50;;;4.87;;
18732;SDS011;9495;51.210;2.934;2023-03-22T02:18:46;12.30;;;5.30;;
18732;SDS011;9495;51.210;2.934;2023-03-22T02:21:38;11.33;;;4.20;;
18732;SDS011;9495;51.210;2.934;2023-03-22T02:27:17;12.20;;;4.10;;
18732;SDS011;9495;51.210;2.934;2023-03-22T02:29:57;11.60;;;3.90;;
18732;SDS011;9495;51.210;2.934;2023-03-22T02:32:46;13.38;;;4.70;;
18732;SDS011;9495;51.210;2.934;2023-03-22T02:35:32;12.97;;;4.40;;
18732;SDS011;9495;51.210;2.934;2023-03-22T02:38:16;16.83;;;4.43;;
18732;SDS011;9495;51.210;2.934;2023-03-22T02:41:07;9.75;;;3.88;;
18732;SDS011;9495;51.210;2.934;2023-03-22T02:43:40;13.27;;;3.87;;
18732;SDS011;9495;51.210;2.934;2023-03-22T02:46:17;13.10;;;4.40;;
18732;SDS011;9495;51.210;2.934;2023-03-22T02:48:51;11.90;;;4.20;;
18732;SDS011;9495;51.210;2.934;2023-03-22T02:51:28;13.77;;;4.30;;
18732;SDS011;9495;51.210;2.934;2023-03-22T02:54:04;12.17;;;3.60;;
18732;SDS011;9495;51.210;2.934;2023-03-22T02:56:39;10.97;;;3.57;;
18732;SDS011;9495;51.210;2.934;2023-03-22T02:59:14;10.97;;;3.60;;
18732;SDS011;9495;51.210;2.934;2023-03-22T03:01:44;12.17;;;2.90;;
18732;SDS011;9495;51.210;2.934;2023-03-22T03:04:16;14.00;;;3.53;;
18732;SDS011;9495;51.210;2.934;2023-03-22T03:06:47;14.17;;;3.47;;
18732;SDS011;9495;51.210;2.934;2023-03-22T03:09:20;13.27;;;3.53;;
18732;SDS011;9495;51.210;2.934;2023-03-22T03:11:51;12.77;;;3.30;;
18732;SDS011;9495;51.210;2.934;2023-03-22T03:14:21;13.70;;;3.30;;
18732;SDS011;9495;51.210;2.934;2023-03-22T03:16:56;12.33;;;3.00;;
18732;SDS011;9495;51.210;2.934;2023-03-22T03:19:32;13.10;;;3.50;;
18732;SDS011;9495;51.210;2.934;2023-03-22T03:22:08;9.90;;;2.97;;
18732;SDS011;9495;51.210;2.934;2023-03-22T03:24:50;17.97;;;3.50;;
18732;SDS011;9495;51.210;2.934;2023-03-22T03:27:28;13.37;;;2.80;;
18732;SDS011;9495;51.210;2.934;2023-03-22T03:30:03;14.03;;;3.00;;
18732;SDS011;9495;51.210;2.934;2023-03-22T03:32:36;8.77;;;3.00;;
18732;SDS011;9495;51.210;2.934;2023-03-22T03:35:13;13.33;;;2.77;;
18732;SDS011;9495;51.210;2.934;2023-03-22T03:37:49;13.83;;;3.33;;
18732;SDS011;9495;51.210;2.934;2023-03-22T03:40:20;11.40;;;2.87;;
18732;SDS011;9495;51.210;2.934;2023-03-22T03:42:54;9.75;;;2.30;;
18732;SDS011;9495;51.210;2.934;2023-03-22T03:45:26;8.77;;;2.50;;
18732;SDS011;9495;51.210;2.934;2023-03-22T03:47:56;11.60;;;2.87;;
18732;SDS011;9495;51.210;2.934;2023-03-22T03:50:26;14.27;;;2.50;;
18732;SDS011;9495;51.210;2.934;2023-03-22T03:52:55;9.53;;;2.37;;
18732;SDS011;9495;51.210;2.934;2023-03-22T03:55:24;8.73;;;2.47;;
18732;SDS011;9495;51.210;2.934;2023-03-22T03:57:55;16.57;;;3.03;;
18732;SDS011;9495;51.210;2.934;2023-03-22T04:00:24;12.60;;;2.60;;
18732;SDS011;9495;51.210;2.934;2023-03-22T04:02:52;11.80;;;2.70;;
18732;SDS011;9495;51.210;2.934;2023-03-22T04:05:21;9.00;;;2.08;;
18732;SDS011;9495;51.210;2.934;2023-03-22T04:07:50;12.85;;;2.55;;
18732;SDS011;9495;51.210;2.934;2023-03-22T04:10:19;8.30;;;2.10;;
18732;SDS011;9495;51.210;2.934;2023-03-22T04:12:47;9.53;;;2.30;;
18732;SDS011;9495;51.210;2.934;2023-03-22T04:15:17;9.83;;;2.53;;
18732;SDS011;9495;51.210;2.934;2023-03-22T04:17:45;9.67;;;1.97;;
18732;SDS011;9495;51.210;2.934;2023-03-22T04:20:14;10.97;;;2.20;;
18732;SDS011;9495;51.210;2.934;2023-03-22T04:22:43;12.27;;;2.20;;
18732;SDS011;9495;51.210;2.934;2023-03-22T04:25:13;10.03;;;2.07;;
18732;SDS011;9495;51.210;2.934;2023-03-22T04:27:45;13.10;;;2.65;;
18732;SDS011;9495;51.210;2.934;2023-03-22T04:30:17;8.63;;;2.00;;
18732;SDS011;9495;51.210;2.934;2023-03-22T04:32:47;10.63;;;2.30;;
18732;SDS011;9495;51.210;2.934;2023-03-22T04:35:17;12.20;;;2.80;;
18732;SDS011;9495;51.210;2.934;2023-03-22T04:37:45;9.75;;;2.38;;
18732;SDS011;9495;51.210;2.934;2023-03-22T04:40:14;12.52;;;2.35;;
18732;SDS011;9495;51.210;2.934;2023-03-22T04:42:43;11.73;;;2.33;;
18732;SDS011;9495;51.210;2.934;2023-03-22T04:45:12;11.60;;;2.80;;
18732;SDS011;9495;51.210;2.934;2023-03-22T04:47:42;10.20;;;2.40;;
18732;SDS011;9495;51.210;2.934;2023-03-22T04:50:11;10.73;;;2.60;;
18732;SDS011;9495;51.210;2.934;2023-03-22T04:52:39;10.63;;;2.70;;
18732;SDS011;9495;51.210;2.934;2023-03-22T04:55:08;9.97;;;2.40;;
18732;SDS011;9495;51.210;2.934;2023-03-22T04:57:37;12.90;;;2.43;;
18732;SDS011;9495;51.210;2.934;2023-03-22T05:00:06;13.67;;;2.77;;
18732;SDS011;9495;51.210;2.934;2023-03-22T05:02:35;15.30;;;2.80;;
18732;SDS011;9495;51.210;2.934;2023-03-22T05:05:08;8.68;;;2.03;;
18732;SDS011;9495;51.210;2.934;2023-03-22T05:07:36;14.43;;;2.33;;
18732;SDS011;9495;51.210;2.934;2023-03-22T05:10:06;10.90;;;2.60;;
18732;SDS011;9495;51.210;2.934;2023-03-22T05:12:34;10.20;;;2.17;;
18732;SDS011;9495;51.210;2.934;2023-03-22T05:15:03;16.53;;;2.47;;
18732;SDS011;9495;51.210;2.934;2023-03-22T05:17:32;13.77;;;2.77;;
18732;SDS011;9495;51.210;2.934;2023-03-22T05:20:01;8.48;;;2.38;;
18732;SDS011;9495;51.210;2.934;2023-03-22T05:22:36;11.93;;;2.10;;
18732;SDS011;9495;51.210;2.934;2023-03-22T05:25:06;11.88;;;2.90;;
18732;SDS011;9495;51.210;2.934;2023-03-22T05:27:36;10.50;;;2.50;;
18732;SDS011;9495;51.210;2.934;2023-03-22T05:30:05;9.20;;;2.40;;
18732;SDS011;9495;51.210;2.934;2023-03-22T05:32:35;10.50;;;2.70;;
18732;SDS011;9495;51.210;2.934;2023-03-22T05:35:09;11.07;;;3.05;;
18732;SDS011;9495;51.210;2.934;2023-03-22T05:37:39;11.40;;;2.63;;
18732;SDS011;9495;51.210;2.934;2023-03-22T05:40:08;13.00;;;2.70;;
18732;SDS011;9495;51.210;2.934;2023-03-22T05:42:37;12.10;;;2.53;;
18732;SDS011;9495;51.210;2.934;2023-03-22T05:45:06;14.25;;;2.47;;
18732;SDS011;9495;51.210;2.934;2023-03-22T05:47:35;12.80;;;2.80;;
18732;SDS011;9495;51.210;2.934;2023-03-22T05:50:05;15.63;;;2.50;;
18732;SDS011;9495;51.210;2.934;2023-03-22T05:52:35;13.18;;;2.53;;
18732;SDS011;9495;51.210;2.934;2023-03-22T05:55:05;9.02;;;1.83;;
18732;SDS011;9495;51.210;2.934;2023-03-22T05:57:34;12.37;;;2.77;;
18732;SDS011;9495;51.210;2.934;2023-03-22T06:00:03;7.43;;;2.70;;
18732;SDS011;9495;51.210;2.934;2023-03-22T06:02:35;13.15;;;2.58;;
18732;SDS011;9495;51.210;2.934;2023-03-22T06:05:04;13.57;;;2.57;;
18732;SDS011;9495;51.210;2.934;2023-03-22T06:07:34;8.30;;;3.22;;
18732;SDS011;9495;51.210;2.934;2023-03-22T06:10:02;11.38;;;2.60;;
18732;SDS011;9495;51.210;2.934;2023-03-22T06:12:33;13.03;;;2.57;;
18732;SDS011;9495;51.210;2.934;2023-03-22T06:15:01;11.02;;;2.95;;
18732;SDS011;9495;51.210;2.934;2023-03-22T06:17:30;12.48;;;2.97;;
18732;SDS011;9495;51.210;2.934;2023-03-22T06:19:59;6.60;;;1.48;;
18732;SDS011;9495;51.210;2.934;2023-03-22T06:22:27;9.40;;;2.90;;
18732;SDS011;9495;51.210;2.934;2023-03-22T06:24:58;15.10;;;6.15;;
18732;SDS011;9495;51.210;2.934;2023-03-22T06:27:28;18.15;;;6.28;;
18732;SDS011;9495;51.210;2.934;2023-03-22T06:29:57;14.00;;;4.93;;
18732;SDS011;9495;51.210;2.934;2023-03-22T06:32:25;13.10;;;4.50;;
18732;SDS011;9495;51.210;2.934;2023-03-22T06:34:54;8.57;;;3.88;;
18732;SDS011;9495;51.210;2.934;2023-03-22T06:37:23;16.02;;;3.42;;
18732;SDS011;9495;51.210;2.934;2023-03-22T06:39:52;12.00;;;2.80;;
18732;SDS011;9495;51.210;2.934;2023-03-22T06:42:20;15.20;;;3.23;;
18732;SDS011;9495;51.210;2.934;2023-03-22T06:44:50;10.27;;;1.83;;
18732;SDS011;9495;51.210;2.934;2023-03-22T06:47:19;13.80;;;2.87;;
18732;SDS011;9495;51.210;2.934;2023-03-22T06:49:48;14.40;;;2.80;;
18732;SDS011;9495;51.210;2.934;2023-03-22T06:52:16;16.10;;;2.50;;
18732;SDS011;9495;51.210;2.934;2023-03-22T06:54:45;10.43;;;2.97;;
18732;SDS011;9495;51.210;2.934;2023-03-22T06:57:13;7.50;;;2.60;;
18732;SDS011;9495;51.210;2.934;2023-03-22T06:59:42;11.85;;;2.67;;
18732;SDS011;9495;51.210;2.934;2023-03-22T07:02:12;12.77;;;2.70;;
18732;SDS011;9495;51.210;2.934;2023-03-22T07:04:41;13.65;;;3.13;;
18732;SDS011;9495;51.210;2.934;2023-03-22T07:07:09;11.60;;;2.95;;
18732;SDS011;9495;51.210;2.934;2023-03-22T07:09:38;12.43;;;3.07;;
18732;SDS011;9495;51.210;2.934;2023-03-22T07:12:06;12.83;;;2.87;;
18732;SDS011;9495;51.210;2.934;2023-03-22T07:14:35;11.80;;;2.80;;
18732;SDS011;9495;51.210;2.934;2023-03-22T07:17:04;10.13;;;2.47;;
18732;SDS011;9495;51.210;2.934;2023-03-22T07:19:34;15.33;;;2.60;;
18732;SDS011;9495;51.210;2.934;2023-03-22T07:22:02;13.40;;;2.77;;
18732;SDS011;9495;51.210;2.934;2023-03-22T07:24:31;10.77;;;2.87;;
18732;SDS011;9495;51.210;2.934;2023-03-22T07:27:02;6.57;;;2.03;;
18732;SDS011;9495;51.210;2.934;2023-03-22T07:29:31;13.10;;;2.40;;
18732;SDS011;9495;51.210;2.934;2023-03-22T07:32:00;11.07;;;2.50;;
18732;SDS011;9495;51.210;2.934;2023-03-22T07:34:28;11.10;;;2.60;;
18732;SDS011;9495;51.210;2.934;2023-03-22T07:36:58;12.70;;;2.80;;
18732;SDS011;9495;51.210;2.934;2023-03-22T07:39:28;12.10;;;2.17;;
18732;SDS011;9495;51.210;2.934;2023-03-22T07:41:57;10.20;;;2.90;;
18732;SDS011;9495;51.210;2.934;2023-03-22T07:44:25;12.73;;;2.53;;
18732;SDS011;9495;51.210;2.934;2023-03-22T07:46:54;9.38;;;2.60;;
18732;SDS011;9495;51.210;2.934;2023-03-22T07:49:23;15.10;;;2.65;;
18732;SDS011;9495;51.210;2.934;2023-03-22T07:51:52;11.83;;;2.70;;
18732;SDS011;9495;51.210;2.934;2023-03-22T07:54:22;11.85;;;2.60;;
18732;SDS011;9495;51.210;2.934;2023-03-22T07:56:59;10.02;;;2.53;;
18732;SDS011;9495;51.210;2.934;2023-03-22T07:59:28;11.15;;;2.63;;
18732;SDS011;9495;51.210;2.934;2023-03-22T08:01:56;15.55;;;2.83;;
18732;SDS011;9495;51.210;2.934;2023-03-22T08:04:25;14.00;;;2.28;;
18732;SDS011;9495;51.210;2.934;2023-03-22T08:06:54;9.85;;;2.50;;
18732;SDS011;9495;51.210;2.934;2023-03-22T08:09:26;11.27;;;2.30;;
18732;SDS011;9495;51.210;2.934;2023-03-22T08:11:54;11.32;;;2.50;;
18732;SDS011;9495;51.210;2.934;2023-03-22T08:14:23;15.32;;;3.05;;
18732;SDS011;9495;51.210;2.934;2023-03-22T08:17:02;12.88;;;2.30;;
18732;SDS011;9495;51.210;2.934;2023-03-22T08:19:30;11.93;;;2.13;;
18732;SDS011;9495;51.210;2.934;2023-03-22T08:21:59;10.38;;;2.45;;
18732;SDS011;9495;51.210;2.934;2023-03-22T08:24:28;9.40;;;2.28;;
18732;SDS011;9495;51.210;2.934;2023-03-22T08:26:57;9.45;;;2.20;;
18732;SDS011;9495;51.210;2.934;2023-03-22T08:29:25;12.50;;;2.45;;
18732;SDS011;9495;51.210;2.934;2023-03-22T08:31:54;11.77;;;2.20;;
18732;SDS011;9495;51.210;2.934;2023-03-22T08:34:27;10.25;;;2.78;;
18732;SDS011;9495;51.210;2.934;2023-03-22T08:36:56;8.02;;;2.28;;
18732;SDS011;9495;51.210;2.934;2023-03-22T08:39:25;8.52;;;2.33;;
18732;SDS011;9495;51.210;2.934;2023-03-22T08:41:55;10.13;;;2.13;;
18732;SDS011;9495;51.210;2.934;2023-03-22T08:44:23;11.88;;;2.38;;
18732;SDS011;9495;51.210;2.934;2023-03-22T08:46:52;7.38;;;2.05;;
18732;SDS011;9495;51.210;2.934;2023-03-22T08:49:21;8.10;;;2.28;;
18732;SDS011;9495;51.210;2.934;2023-03-22T08:51:49;9.50;;;2.35;;
18732;SDS011;9495;51.210;2.934;2023-03-22T08:54:18;10.30;;;2.70;;
18732;SDS011;9495;51.210;2.934;2023-03-22T08:56:47;11.48;;;2.47;;
18732;SDS011;9495;51.210;2.934;2023-03-22T08:59:17;7.40;;;1.90;;
18732;SDS011;9495;51.210;2.934;2023-03-22T09:01:45;11.65;;;2.20;;
18732;SDS011;9495;51.210;2.934;2023-03-22T09:04:14;9.70;;;2.15;;
18732;SDS011;9495;51.210;2.934;2023-03-22T09:06:42;7.05;;;2.47;;
18732;SDS011;9495;51.210;2.934;2023-03-22T09:09:12;14.40;;;2.72;;
18732;SDS011;9495;51.210;2.934;2023-03-22T09:11:41;9.10;;;2.30;;
18732;SDS011;9495;51.210;2.934;2023-03-22T09:14:10;6.68;;;1.63;;
18732;SDS011;9495;51.210;2.934;2023-03-22T09:16:40;8.10;;;2.10;;
18732;SDS011;9495;51.210;2.934;2023-03-22T09:19:08;8.60;;;2.05;;
18732;SDS011;9495;51.210;2.934;2023-03-22T09:21:37;11.13;;;2.80;;
18732;SDS011;9495;51.210;2.934;2023-03-22T09:24:05;6.28;;;2.10;;
18732;SDS011;9495;51.210;2.934;2023-03-22T09:26:34;6.25;;;2.00;;
18732;SDS011;9495;51.210;2.934;2023-03-22T09:29:03;8.50;;;2.40;;
18732;SDS011;9495;51.210;2.934;2023-03-22T09:31:32;9.20;;;2.10;;
18732;SDS011;9495;51.210;2.934;2023-03-22T09:34:02;5.90;;;2.20;;
18732;SDS011;9495;51.210;2.934;2023-03-22T09:36:30;6.82;;;2.00;;
18732;SDS011;9495;51.210;2.934;2023-03-22T09:38:59;7.70;;;2.25;;
18732;SDS011;9495;51.210;2.934;2023-03-22T09:41:33;8.27;;;2.17;;
18732;SDS011;9495;51.210;2.934;2023-03-22T09:44:05;7.53;;;2.47;;
18732;SDS011;9495;51.210;2.934;2023-03-22T09:46:40;7.05;;;2.00;;
18732;SDS011;9495;51.210;2.934;2023-03-22T09:49:15;11.32;;;2.30;;
18732;SDS011;9495;51.210;2.934;2023-03-22T09:51:47;11.20;;;2.60;;
18732;SDS011;9495;51.210;2.934;2023-03-22T09:54:18;9.32;;;1.58;;
18732;SDS011;9495;51.210;2.934;2023-03-22T09:56:52;7.03;;;1.83;;
18732;SDS011;9495;51.210;2.934;2023-03-22T09:59:26;7.35;;;2.08;;
18732;SDS011;9495;51.210;2.934;2023-03-22T10:02:21;6.45;;;1.83;;
18732;SDS011;9495;51.210;2.934;2023-03-22T10:05:04;4.00;;;1.60;;
18732;SDS011;9495;51.210;2.934;2023-03-22T10:07:45;8.35;;;1.83;;
18732;SDS011;9495;51.210;2.934;2023-03-22T10:10:27;9.40;;;2.40;;
18732;SDS011;9495;51.210;2.934;2023-03-22T10:12:57;6.22;;;2.30;;
18732;SDS011;9495;51.210;2.934;2023-03-22T10:15:32;7.25;;;2.00;;
18732;SDS011;9495;51.210;2.934;2023-03-22T10:18:05;7.30;;;1.88;;
18732;SDS011;9495;51.210;2.934;2023-03-22T10:20:39;5.97;;;1.60;;
18732;SDS011;9495;51.210;2.934;2023-03-22T10:23:13;5.80;;;2.22;;
18732;SDS011;9495;51.210;2.934;2023-03-22T10:25:45;5.22;;;1.85;;
18732;SDS011;9495;51.210;2.934;2023-03-22T10:28:15;6.38;;;2.28;;
18732;SDS011;9495;51.210;2.934;2023-03-22T10:30:49;9.07;;;2.50;;
18732;SDS011;9495;51.210;2.934;2023-03-22T10:33:25;6.55;;;1.90;;
18732;SDS011;9495;51.210;2.934;2023-03-22T10:36:02;7.07;;;2.08;;
18732;SDS011;9495;51.210;2.934;2023-03-22T10:38:33;5.50;;;1.60;;
18732;SDS011;9495;51.210;2.934;2023-03-22T10:41:07;5.15;;;1.77;;
18732;SDS011;9495;51.210;2.934;2023-03-22T10:43:37;7.75;;;1.88;;
18732;SDS011;9495;51.210;2.934;2023-03-22T10:46:09;5.38;;;1.63;;
18732;SDS011;9495;51.210;2.934;2023-03-22T10:48:43;6.10;;;1.23;;
18732;SDS011;9495;51.210;2.934;2023-03-22T10:51:17;4.90;;;2.00;;
18732;SDS011;9495;51.210;2.934;2023-03-22T10:53:49;6.15;;;1.80;;
18732;SDS011;9495;51.210;2.934;2023-03-22T10:56:21;7.13;;;1.45;;
18732;SDS011;9495;51.210;2.934;2023-03-22T10:58:50;8.55;;;2.47;;
18732;SDS011;9495;51.210;2.934;2023-03-22T11:01:24;6.78;;;1.90;;
18732;SDS011;9495;51.210;2.934;2023-03-22T11:03:56;10.18;;;2.10;;
18732;SDS011;9495;51.210;2.934;2023-03-22T11:06:27;5.43;;;1.80;;
18732;SDS011;9495;51.210;2.934;2023-03-22T11:08:59;5.93;;;2.00;;
18732;SDS011;9495;51.210;2.934;2023-03-22T11:11:29;6.30;;;2.13;;
18732;SDS011;9495;51.210;2.934;2023-03-22T11:14:01;6.43;;;2.10;;
18732;SDS011;9495;51.210;2.934;2023-03-22T11:16:39;4.68;;;1.90;;
18732;SDS011;9495;51.210;2.934;2023-03-22T11:19:11;4.63;;;1.58;;
18732;SDS011;9495;51.210;2.934;2023-03-22T11:21:54;8.32;;;1.95;;
18732;SDS011;9495;51.210;2.934;2023-03-22T11:24:24;6.78;;;2.28;;
18732;SDS011;9495;51.210;2.934;2023-03-22T11:27:03;7.95;;;2.95;;
18732;SDS011;9495;51.210;2.934;2023-03-22T11:29:41;6.68;;;2.35;;
18732;SDS011;9495;51.210;2.934;2023-03-22T11:32:18;4.93;;;1.80;;
18732;SDS011;9495;51.210;2.934;2023-03-22T11:34:58;6.38;;;2.17;;
18732;SDS011;9495;51.210;2.934;2023-03-22T11:37:30;9.48;;;2.78;;
18732;SDS011;9495;51.210;2.934;2023-03-22T11:39:59;7.05;;;2.63;;
18732;SDS011;9495;51.210;2.934;2023-03-22T11:42:31;11.05;;;4.50;;
18732;SDS011;9495;51.210;2.934;2023-03-22T11:45:02;6.55;;;2.15;;
18732;SDS011;9495;51.210;2.934;2023-03-22T11:47:31;8.00;;;2.00;;
18732;SDS011;9495;51.210;2.934;2023-03-22T11:50:05;6.75;;;2.28;;
18732;SDS011;9495;51.210;2.934;2023-03-22T11:52:37;7.07;;;1.80;;
18732;SDS011;9495;51.210;2.934;2023-03-22T11:55:06;8.48;;;2.05;;
18732;SDS011;9495;51.210;2.934;2023-03-22T11:57:34;5.78;;;2.13;;
18732;SDS011;9495;51.210;2.934;2023-03-22T12:00:05;4.90;;;1.60;;
18732;SDS011;9495;51.210;2.934;2023-03-22T12:02:40;6.47;;;2.50;;
18732;SDS011;9495;51.210;2.934;2023-03-22T12:05:14;4.30;;;1.80;;
18732;SDS011;9495;51.210;2.934;2023-03-22T12:07:49;8.63;;;2.33;;
18732;SDS011;9495;51.210;2.934;2023-03-22T12:10:21;6.57;;;2.47;;
18732;SDS011;9495;51.210;2.934;2023-03-22T12:12:55;10.05;;;3.47;;
18732;SDS011;9495;51.210;2.934;2023-03-22T12:15:27;6.40;;;2.63;;
18732;SDS011;9495;51.210;2.934;2023-03-22T12:17:59;4.57;;;1.65;;
18732;SDS011;9495;51.210;2.934;2023-03-22T12:20:35;4.65;;;2.03;;
18732;SDS011;9495;51.210;2.934;2023-03-22T12:23:12;5.78;;;1.73;;
18732;SDS011;9495;51.210;2.934;2023-03-22T12:25:43;5.00;;;1.67;;
18732;SDS011;9495;51.210;2.934;2023-03-22T12:28:16;4.93;;;1.65;;
18732;SDS011;9495;51.210;2.934;2023-03-22T12:30:47;6.28;;;1.70;;
18732;SDS011;9495;51.210;2.934;2023-03-22T12:33:18;7.15;;;1.85;;
18732;SDS011;9495;51.210;2.934;2023-03-22T12:35:49;5.75;;;1.90;;
18732;SDS011;9495;51.210;2.934;2023-03-22T12:38:25;6.95;;;1.60;;
18732;SDS011;9495;51.210;2.934;2023-03-22T12:40:59;6.55;;;1.90;;
18732;SDS011;9495;51.210;2.934;2023-03-22T12:43:34;4.88;;;1.77;;
18732;SDS011;9495;51.210;2.934;2023-03-22T12:46:08;3.80;;;1.27;;
18732;SDS011;9495;51.210;2.934;2023-03-22T12:48:44;6.05;;;2.05;;
18732;SDS011;9495;51.210;2.934;2023-03-22T12:51:17;4.68;;;1.60;;
18732;SDS011;9495;51.210;2.934;2023-03-22T12:53:48;11.65;;;2.13;;
18732;SDS011;9495;51.210;2.934;2023-03-22T12:56:19;4.57;;;2.00;;
18732;SDS011;9495;51.210;2.934;2023-03-22T12:58:51;5.22;;;1.67;;
18732;SDS011;9495;51.210;2.934;2023-03-22T13:01:22;3.85;;;1.60;;
18732;SDS011;9495;51.210;2.934;2023-03-22T13:03:56;2.70;;;1.30;;
18732;SDS011;9495;51.210;2.934;2023-03-22T13:06:33;3.90;;;1.85;;
18732;SDS011;9495;51.210;2.934;2023-03-22T13:09:36;4.28;;;1.85;;
18732;SDS011;9495;51.210;2.934;2023-03-22T13:14:55;5.10;;;2.38;;
18732;SDS011;9495;51.210;2.934;2023-03-22T13:20:19;4.72;;;2.00;;
18732;SDS011;9495;51.210;2.934;2023-03-22T13:23:00;5.72;;;1.90;;
18732;SDS011;9495;51.210;2.934;2023-03-22T13:25:39;4.00;;;1.90;;
18732;SDS011;9495;51.210;2.934;2023-03-22T13:28:26;5.93;;;2.00;;
18732;SDS011;9495;51.210;2.934;2023-03-22T13:31:02;5.65;;;1.92;;
18732;SDS011;9495;51.210;2.934;2023-03-22T13:33:32;5.07;;;1.98;;
18732;SDS011;9495;51.210;2.934;2023-03-22T13:36:04;5.40;;;2.08;;
18732;SDS011;9495;51.210;2.934;2023-03-22T13:38:36;4.20;;;1.75;;
18732;SDS011;9495;51.210;2.934;2023-03-22T13:41:15;5.35;;;2.00;;
18732;SDS011;9495;51.210;2.934;2023-03-22T13:43:48;5.47;;;1.83;;
18732;SDS011;9495;51.210;2.934;2023-03-22T13:46:28;6.70;;;2.05;;
18732;SDS011;9495;51.210;2.934;2023-03-22T13:49:14;6.70;;;2.30;;
18732;SDS011;9495;51.210;2.934;2023-03-22T13:51:49;6.10;;;1.80;;
18732;SDS011;9495;51.210;2.934;2023-03-22T13:54:19;4.18;;;1.83;;
18732;SDS011;9495;51.210;2.934;2023-03-22T13:56:56;4.15;;;1.70;;
18732;SDS011;9495;51.210;2.934;2023-03-22T13:59:28;5.10;;;1.98;;
18732;SDS011;9495;51.210;2.934;2023-03-22T14:02:01;2.92;;;1.80;;
18732;SDS011;9495;51.210;2.934;2023-03-22T14:04:37;5.63;;;2.20;;
18732;SDS011;9495;51.210;2.934;2023-03-22T14:07:11;4.90;;;2.45;;
18732;SDS011;9495;51.210;2.934;2023-03-22T14:09:48;6.30;;;2.25;;
18732;SDS011;9495;51.210;2.934;2023-03-22T14:12:20;5.43;;;2.30;;
18732;SDS011;9495;51.210;2.934;2023-03-22T14:14:54;4.90;;;2.03;;
18732;SDS011;9495;51.210;2.934;2023-03-22T14:17:29;5.32;;;2.08;;
18732;SDS011;9495;51.210;2.934;2023-03-22T14:20:05;5.05;;;2.00;;
18732;SDS011;9495;51.210;2.934;2023-03-22T14:22:38;3.40;;;2.08;;
18732;SDS011;9495;51.210;2.934;2023-03-22T14:25:11;3.53;;;1.80;;
18732;SDS011;9495;51.210;2.934;2023-03-22T14:27:45;6.68;;;2.40;;
18732;SDS011;9495;51.210;2.934;2023-03-22T14:30:26;5.63;;;1.90;;
18732;SDS011;9495;51.210;2.934;2023-03-22T14:32:55;3.92;;;2.28;;
18732;SDS011;9495;51.210;2.934;2023-03-22T14:35:27;4.35;;;2.13;;
18732;SDS011;9495;51.210;2.934;2023-03-22T14:37:59;5.00;;;2.10;;
18732;SDS011;9495;51.210;2.934;2023-03-22T14:40:28;4.65;;;2.40;;
18732;SDS011;9495;51.210;2.934;2023-03-22T14:43:12;3.08;;;1.90;;
18732;SDS011;9495;51.210;2.934;2023-03-22T14:45:40;4.13;;;2.25;;
18732;SDS011;9495;51.210;2.934;2023-03-22T14:48:11;2.92;;;1.85;;
18732;SDS011;9495;51.210;2.934;2023-03-22T14:50:43;4.63;;;2.03;;
18732;SDS011;9495;51.210;2.934;2023-03-22T14:53:12;4.55;;;2.58;;
18732;SDS011;9495;51.210;2.934;2023-03-22T14:55:40;4.53;;;2.30;;
18732;SDS011;9495;51.210;2.934;2023-03-22T14:58:12;5.50;;;2.28;;
18732;SDS011;9495;51.210;2.934;2023-03-22T15:00:42;3.70;;;2.55;;
18732;SDS011;9495;51.210;2.934;2023-03-22T15:03:11;6.20;;;2.63;;
18732;SDS011;9495;51.210;2.934;2023-03-22T15:05:41;5.55;;;2.88;;
18732;SDS011;9495;51.210;2.934;2023-03-22T15:08:10;8.13;;;3.17;;
18732;SDS011;9495;51.210;2.934;2023-03-22T15:10:38;4.13;;;2.40;;
18732;SDS011;9495;51.210;2.934;2023-03-22T15:13:07;5.88;;;2.70;;
18732;SDS011;9495;51.210;2.934;2023-03-22T15:15:38;4.35;;;2.78;;
18732;SDS011;9495;51.210;2.934;2023-03-22T15:18:07;7.15;;;2.75;;
18732;SDS011;9495;51.210;2.934;2023-03-22T15:20:39;6.15;;;2.47;;
18732;SDS011;9495;51.210;2.934;2023-03-22T15:23:11;6.60;;;3.13;;
18732;SDS011;9495;51.210;2.934;2023-03-22T15:25:43;4.28;;;2.88;;
18732;SDS011;9495;51.210;2.934;2023-03-22T15:28:12;6.07;;;2.58;;
18732;SDS011;9495;51.210;2.934;2023-03-22T15:30:45;7.07;;;3.70;;
18732;SDS011;9495;51.210;2.934;2023-03-22T15:33:18;8.77;;;3.80;;